createdAt,value
2023-10-30T00:01:37.238Z,15.17
2023-10-30T00:04:25.330Z,15.03
2023-10-30T00:07:14.668Z,14.74
2023-10-30T00:10:02.533Z,14.67
2023-10-30T00:12:50.527Z,14.81
2023-10-30T00:15:38.428Z,14.88
2023-10-30T00:18:26.561Z,14.75
2023-10-30T00:21:14.517Z,14.82
2023-10-30T00:24:04.120Z,14.69
2023-10-30T00:26:52.052Z,14.66
2023-10-30T00:29:42.012Z,14.57
2023-10-30T00:32:29.927Z,14.67
2023-10-30T00:35:17.827Z,14.78
2023-10-30T00:38:06.117Z,14.63
2023-10-30T00:40:55.479Z,14.63
2023-10-30T00:43:43.475Z,14.53
2023-10-30T00:46:31.554Z,14.67
2023-10-30T00:49:19.754Z,14.51
2023-10-30T00:52:08.361Z,14.52
2023-10-30T00:54:56.134Z,14.50
2023-10-30T00:57:45.512Z,14.48
2023-10-30T01:00:33.286Z,14.42
2023-10-30T01:03:24.900Z,14.54
2023-10-30T01:06:12.949Z,14.38
2023-10-30T01:09:01.045Z,14.49
2023-10-30T01:11:48.990Z,14.32
2023-10-30T01:14:38.269Z,14.43
2023-10-30T01:17:26.416Z,14.44
2023-10-30T01:20:15.047Z,14.35
2023-10-30T01:23:02.925Z,14.34
2023-10-30T01:25:51.149Z,14.31
2023-10-30T01:28:38.915Z,14.12
2023-10-30T01:31:29.122Z,14.19
2023-10-30T01:34:17.017Z,14.12
2023-10-30T01:37:05.553Z,13.91
2023-10-30T01:39:53.284Z,13.98
2023-10-30T01:42:41.297Z,13.78
2023-10-30T01:45:29.170Z,13.88
2023-10-30T01:48:18.558Z,13.99
2023-10-30T01:51:08.867Z,13.84
2023-10-30T01:53:57.089Z,13.79
2023-10-30T01:56:45.253Z,13.69
2023-10-30T01:59:34.039Z,13.76
2023-10-30T02:02:23.250Z,13.67
2023-10-30T02:05:14.738Z,13.75
2023-10-30T02:08:03.335Z,13.62
2023-10-30T02:10:51.350Z,13.70
2023-10-30T02:13:39.106Z,13.71
2023-10-30T02:16:27.201Z,13.52
2023-10-30T02:19:23.903Z,13.80
2023-10-30T02:22:13.150Z,13.64
2023-10-30T02:25:01.355Z,13.63
2023-10-30T02:27:50.745Z,13.68
2023-10-30T02:30:38.774Z,13.69
2023-10-30T02:33:27.269Z,13.65
2023-10-30T02:36:15.117Z,13.58
2023-10-30T02:39:04.196Z,13.62
2023-10-30T02:41:51.916Z,13.62
2023-10-30T02:44:41.447Z,13.14
2023-10-30T02:47:30.031Z,13.48
2023-10-30T02:50:17.887Z,13.36
2023-10-30T02:53:07.366Z,12.81
2023-10-30T02:55:55.513Z,13.25
2023-10-30T02:58:43.646Z,13.37
2023-10-30T03:01:32.877Z,13.21
2023-10-30T03:04:21.163Z,13.35
2023-10-30T03:07:08.960Z,13.25
2023-10-30T03:09:56.919Z,13.23
2023-10-30T03:12:44.950Z,13.38
2023-10-30T03:15:32.964Z,13.34
2023-10-30T03:18:22.308Z,13.21
2023-10-30T03:21:10.250Z,13.24
2023-10-30T03:23:58.300Z,13.30
2023-10-30T03:26:46.048Z,13.24
2023-10-30T03:29:37.881Z,13.14
2023-10-30T03:32:25.720Z,13.09
2023-10-30T03:35:15.041Z,13.16
2023-10-30T03:38:02.923Z,13.03
2023-10-30T03:40:50.781Z,12.86
2023-10-30T03:43:38.804Z,12.96
2023-10-30T03:46:26.718Z,12.98
2023-10-30T03:49:14.862Z,13.06
2023-10-30T03:52:04.119Z,12.98
2023-10-30T03:54:51.908Z,13.02
2023-10-30T03:57:41.747Z,12.95
2023-10-30T04:00:29.754Z,12.86
2023-10-30T04:03:18.025Z,12.69
2023-10-30T04:06:06.583Z,12.79
2023-10-30T04:08:55.943Z,12.76
2023-10-30T04:11:47.634Z,12.66
2023-10-30T04:14:35.607Z,12.67
2023-10-30T04:17:24.344Z,12.65
2023-10-30T04:20:13.432Z,12.66
2023-10-30T04:23:01.526Z,12.65
2023-10-30T04:25:50.865Z,12.67
2023-10-30T04:28:38.744Z,12.69
2023-10-30T04:31:26.701Z,12.32
2023-10-30T04:34:14.735Z,12.45
2023-10-30T04:37:02.896Z,12.34
2023-10-30T04:39:51.168Z,12.32
2023-10-30T04:42:41.367Z,12.39
2023-10-30T04:45:29.522Z,12.47
2023-10-30T04:48:17.577Z,12.47
2023-10-30T04:51:06.080Z,12.35
2023-10-30T04:53:55.376Z,12.57
2023-10-30T04:56:43.712Z,12.51
2023-10-30T04:59:34.053Z,12.34
2023-10-30T05:02:22.174Z,12.42
2023-10-30T05:05:10.585Z,12.43
2023-10-30T05:07:58.372Z,12.53
2023-10-30T05:10:47.930Z,12.60
2023-10-30T05:13:36.677Z,12.59
2023-10-30T05:16:26.293Z,12.56
2023-10-30T05:19:14.185Z,12.46
2023-10-30T05:22:02.296Z,12.45
2023-10-30T05:24:50.176Z,12.55
2023-10-30T05:27:38.339Z,12.58
2023-10-30T05:30:26.543Z,12.64
2023-10-30T05:33:15.864Z,12.78
2023-10-30T05:36:04.715Z,12.65
2023-10-30T05:38:52.529Z,12.35
2023-10-30T05:41:40.383Z,12.95
2023-10-30T05:44:31.532Z,12.97
2023-10-30T05:47:19.448Z,13.15
2023-10-30T05:50:11.273Z,13.02
2023-10-30T05:52:59.049Z,13.34
2023-10-30T05:55:47.564Z,13.42
2023-10-30T05:58:35.590Z,13.38
2023-10-30T06:01:23.550Z,13.35
2023-10-30T06:04:11.611Z,13.49
2023-10-30T06:07:00.934Z,13.70
2023-10-30T06:09:49.222Z,13.64
2023-10-30T06:12:37.342Z,13.59
2023-10-30T06:15:25.630Z,13.79
2023-10-30T06:18:13.763Z,13.89
2023-10-30T06:21:03.075Z,13.71
2023-10-30T06:23:52.386Z,13.95
2023-10-30T06:26:42.271Z,13.96
2023-10-30T06:29:30.476Z,14.10
2023-10-30T06:32:18.781Z,14.17
2023-10-30T06:35:09.241Z,14.38
2023-10-30T06:37:57.387Z,14.35
2023-10-30T06:40:47.428Z,14.28
2023-10-30T06:43:36.144Z,14.42
2023-10-30T06:46:24.453Z,14.39
2023-10-30T06:49:12.488Z,14.68
2023-10-30T06:52:01.789Z,14.93
2023-10-30T06:54:49.854Z,14.95
2023-10-30T06:57:39.387Z,14.71
2023-10-30T07:00:28.175Z,15.14
2023-10-30T07:03:16.467Z,15.31
2023-10-30T07:06:04.798Z,15.39
2023-10-30T07:08:52.555Z,15.46
2023-10-30T07:11:41.254Z,15.62
2023-10-30T07:14:30.875Z,15.97
2023-10-30T07:17:19.003Z,16.11
2023-10-30T07:20:07.890Z,16.17
2023-10-30T07:22:55.971Z,16.41
2023-10-30T07:25:43.902Z,16.44
2023-10-30T07:28:31.890Z,16.52
2023-10-30T07:31:22.303Z,16.39
2023-10-30T07:34:10.273Z,16.79
2023-10-30T07:36:58.855Z,16.73
2023-10-30T07:39:46.681Z,17.04
2023-10-30T07:42:34.944Z,17.06
2023-10-30T07:45:22.889Z,17.26
2023-10-30T07:48:12.312Z,17.28
2023-10-30T07:51:03.836Z,17.47
2023-10-30T07:53:52.088Z,17.50
2023-10-30T07:56:40.334Z,17.40
2023-10-30T07:59:28.074Z,17.62
2023-10-30T08:02:16.195Z,17.62
2023-10-30T08:05:06.231Z,17.63
2023-10-30T08:07:54.250Z,17.80
2023-10-30T08:10:42.076Z,17.90
2023-10-30T08:13:30.077Z,17.84
2023-10-30T08:16:18.343Z,17.92
2023-10-30T08:19:06.610Z,18.05
2023-10-30T08:21:56.114Z,18.09
2023-10-30T08:24:44.024Z,18.07
2023-10-30T08:27:32.145Z,18.23
2023-10-30T08:30:20.411Z,18.50
2023-10-30T08:33:08.289Z,18.55
2023-10-30T08:35:56.582Z,18.61
2023-10-30T08:38:45.725Z,18.70
2023-10-30T08:41:34.974Z,18.73
2023-10-30T08:44:26.025Z,18.75
2023-10-30T08:47:18.153Z,18.80
2023-10-30T08:50:09.467Z,18.92
2023-10-30T08:52:57.533Z,18.85
2023-10-30T08:55:46.872Z,18.89
2023-10-30T08:58:34.828Z,19.07
2023-10-30T09:01:22.721Z,19.10
2023-10-30T09:04:11.531Z,19.11
2023-10-30T09:06:59.496Z,18.80
2023-10-30T09:09:47.930Z,19.00
2023-10-30T09:12:37.650Z,19.07
2023-10-30T09:15:25.693Z,19.10
2023-10-30T09:18:13.760Z,19.20
2023-10-30T09:21:01.782Z,19.37
2023-10-30T09:23:49.698Z,19.43
2023-10-30T09:26:37.579Z,19.39
2023-10-30T09:29:27.237Z,19.54
2023-10-30T09:32:15.609Z,19.64
2023-10-30T09:35:04.585Z,19.54
2023-10-30T09:37:52.578Z,19.35
2023-10-30T09:40:40.636Z,19.31
2023-10-30T09:43:30.420Z,19.46
2023-10-30T09:46:24.681Z,19.64
2023-10-30T09:49:15.271Z,19.71
2023-10-30T09:52:05.648Z,19.69
2023-10-30T09:54:55.645Z,19.79
2023-10-30T09:57:44.985Z,19.91
2023-10-30T10:00:33.586Z,19.86
2023-10-30T10:03:23.116Z,19.99
2023-10-30T10:06:11.397Z,19.98
2023-10-30T10:09:00.313Z,20.06
2023-10-30T10:11:48.594Z,20.03
2023-10-30T10:14:36.620Z,19.97
2023-10-30T10:17:24.841Z,20.14
2023-10-30T10:20:14.749Z,20.16
2023-10-30T10:23:02.630Z,20.12
2023-10-30T10:26:00.906Z,20.23
2023-10-30T10:28:49.322Z,20.24
2023-10-30T10:31:42.177Z,20.21
2023-10-30T10:34:33.143Z,19.97
2023-10-30T10:37:22.747Z,20.39
2023-10-30T10:40:19.037Z,20.97
2023-10-30T10:43:09.394Z,20.73
2023-10-30T10:45:58.407Z,20.68
2023-10-30T10:48:46.537Z,20.61
2023-10-30T10:51:38.676Z,20.82
2023-10-30T10:54:33.335Z,20.87
2023-10-30T10:57:23.225Z,20.82
2023-10-30T11:00:15.075Z,20.83
2023-10-30T11:03:06.897Z,20.81
2023-10-30T11:05:55.726Z,20.65
2023-10-30T11:08:50.468Z,21.05
2023-10-30T11:11:48.499Z,21.07
2023-10-30T11:14:45.222Z,20.99
2023-10-30T11:17:33.546Z,20.86
2023-10-30T11:20:24.414Z,21.10
2023-10-30T11:23:13.817Z,21.09
2023-10-30T11:26:01.930Z,21.09
2023-10-30T11:28:51.216Z,20.97
2023-10-30T11:32:05.491Z,21.12
2023-10-30T11:34:53.369Z,21.07
2023-10-30T11:37:42.520Z,21.12
2023-10-30T11:40:31.162Z,21.10
2023-10-30T11:43:21.631Z,21.23
2023-10-30T11:46:11.050Z,21.02
2023-10-30T11:49:01.077Z,21.02
2023-10-30T11:51:53.309Z,21.18
2023-10-30T11:54:42.920Z,21.21
2023-10-30T11:57:30.910Z,21.16
2023-10-30T12:00:19.558Z,21.18
2023-10-30T12:03:10.831Z,21.39
2023-10-30T12:05:58.926Z,21.30
2023-10-30T12:08:46.803Z,21.25
2023-10-30T12:11:34.879Z,21.23
2023-10-30T12:14:23.178Z,21.19
2023-10-30T12:17:11.421Z,21.40
2023-10-30T12:20:01.154Z,21.39
2023-10-30T12:22:49.049Z,21.43
2023-10-30T12:25:36.986Z,21.44
2023-10-30T12:28:24.765Z,21.12
2023-10-30T12:31:20.055Z,21.37
2023-10-30T12:34:09.524Z,21.28
2023-10-30T12:36:58.800Z,21.39
2023-10-30T12:40:02.606Z,21.51
2023-10-30T12:42:51.198Z,21.58
2023-10-30T12:45:40.447Z,21.59
2023-10-30T12:48:28.431Z,21.53
2023-10-30T12:51:16.392Z,21.74
2023-10-30T12:54:06.372Z,21.76
2023-10-30T12:56:54.442Z,21.81
2023-10-30T12:59:42.229Z,21.80
2023-10-30T13:02:30.612Z,21.83
2023-10-30T13:05:18.926Z,21.78
2023-10-30T13:08:07.039Z,21.76
2023-10-30T13:10:56.421Z,21.78
2023-10-30T13:13:44.342Z,21.91
2023-10-30T13:16:32.472Z,21.63
2023-10-30T13:19:20.373Z,21.80
2023-10-30T13:22:08.344Z,21.92
2023-10-30T13:24:56.338Z,21.86
2023-10-30T13:27:45.700Z,21.76
2023-10-30T13:30:33.728Z,21.86
2023-10-30T13:33:21.708Z,21.93
2023-10-30T13:36:09.887Z,21.77
2023-10-30T13:38:57.665Z,22.00
2023-10-30T13:41:47.430Z,21.94
2023-10-30T13:44:36.920Z,22.00
2023-10-30T13:47:24.717Z,22.01
2023-10-30T13:50:12.784Z,21.98
2023-10-30T13:53:00.614Z,22.01
2023-10-30T13:55:48.778Z,21.97
2023-10-30T13:58:38.479Z,22.04
2023-10-30T14:01:27.988Z,21.91
2023-10-30T14:07:06.121Z,21.93
2023-10-30T14:09:57.051Z,21.97
2023-10-30T14:12:44.911Z,21.95
2023-10-30T14:15:33.262Z,21.85
2023-10-30T14:18:22.713Z,21.85
2023-10-30T14:21:10.588Z,21.82
2023-10-30T14:23:58.490Z,21.82
2023-10-30T14:26:46.193Z,21.79
2023-10-30T14:29:34.284Z,21.66
2023-10-30T14:32:22.227Z,21.68
2023-10-30T14:35:11.690Z,21.61
2023-10-30T14:37:59.465Z,21.71
2023-10-30T14:40:47.245Z,21.62
2023-10-30T14:43:35.058Z,21.52
2023-10-30T14:46:23.808Z,21.35
2023-10-30T14:49:12.505Z,21.27
2023-10-30T14:52:03.570Z,21.09
2023-10-30T14:54:51.678Z,21.01
2023-10-30T14:57:39.806Z,20.88
2023-10-30T15:00:27.642Z,20.75
2023-10-30T15:03:15.918Z,20.71
2023-10-30T15:06:03.780Z,20.62
2023-10-30T15:08:53.224Z,20.54
2023-10-30T15:11:41.076Z,20.47
2023-10-30T15:14:29.803Z,20.38
2023-10-30T15:17:18.000Z,20.26
2023-10-30T15:20:06.856Z,20.14
2023-10-30T15:22:54.996Z,20.00
2023-10-30T15:25:44.324Z,19.99
2023-10-30T15:28:32.559Z,20.03
2023-10-30T15:31:20.537Z,19.87
2023-10-30T15:34:08.523Z,19.77
2023-10-30T15:36:56.720Z,19.71
2023-10-30T15:39:44.957Z,19.44
2023-10-30T15:42:34.587Z,19.59
2023-10-30T15:45:22.523Z,19.47
2023-10-30T15:48:12.149Z,19.43
2023-10-30T15:51:00.132Z,19.40
2023-10-30T15:59:31.546Z,19.56
2023-10-30T16:02:19.761Z,19.35
2023-10-30T16:05:08.315Z,19.13
2023-10-30T16:07:57.489Z,19.10
2023-10-30T16:10:45.678Z,19.15
2023-10-30T16:16:26.588Z,18.92
2023-10-30T16:19:16.212Z,18.67
2023-10-30T16:22:04.584Z,18.49
2023-10-30T16:24:52.644Z,18.37
2023-10-30T16:27:40.438Z,18.33
2023-10-30T16:30:28.453Z,18.35
2023-10-30T16:33:19.030Z,18.30
2023-10-30T16:36:07.884Z,18.38
2023-10-30T16:38:55.800Z,18.35
2023-10-30T16:41:44.265Z,18.16
2023-10-30T16:44:35.473Z,18.09
2023-10-30T16:47:23.689Z,18.10
2023-10-30T16:50:14.756Z,17.98
2023-10-30T16:53:04.020Z,17.94
2023-10-30T16:55:52.033Z,17.80
2023-10-30T16:58:40.176Z,17.81
2023-10-30T17:01:30.269Z,17.91
2023-10-30T17:04:18.826Z,17.86
2023-10-30T17:07:09.190Z,17.74
2023-10-30T17:09:57.086Z,17.70
2023-10-30T17:12:44.898Z,17.47
2023-10-30T17:15:32.987Z,17.68
2023-10-30T17:18:27.437Z,17.62
2023-10-30T17:21:15.356Z,17.64
2023-10-30T17:24:05.017Z,17.49
2023-10-30T17:26:52.871Z,17.47
2023-10-30T17:29:40.843Z,17.42
2023-10-30T17:32:28.838Z,17.43
2023-10-30T17:35:16.679Z,17.40
2023-10-30T17:38:04.825Z,17.36
2023-10-30T17:40:54.078Z,17.42
2023-10-30T17:43:41.848Z,17.44
2023-10-30T17:46:30.275Z,17.40
2023-10-30T17:49:18.193Z,17.33
2023-10-30T17:52:06.230Z,17.28
2023-10-30T17:54:54.216Z,17.40
2023-10-30T17:57:43.529Z,17.64
2023-10-30T18:00:32.071Z,17.30
2023-10-30T18:03:20.315Z,17.23
2023-10-30T18:06:08.941Z,17.27
2023-10-30T18:08:56.860Z,16.93
2023-10-30T18:11:44.948Z,17.21
2023-10-30T18:14:36.147Z,17.30
2023-10-30T18:17:27.830Z,17.04
2023-10-30T18:20:16.128Z,17.18
2023-10-30T18:23:04.480Z,17.04
2023-10-30T18:25:55.485Z,16.80
2023-10-30T18:28:44.741Z,16.90
2023-10-30T18:31:34.529Z,17.23
2023-10-30T18:34:22.583Z,17.13
2023-10-30T18:37:10.784Z,17.07
2023-10-30T18:39:58.855Z,16.98
2023-10-30T18:42:46.725Z,16.77
2023-10-30T18:45:34.929Z,16.74
2023-10-30T18:48:27.637Z,16.87
2023-10-30T18:51:18.260Z,16.99
2023-10-30T18:54:06.681Z,16.91
2023-10-30T18:56:56.875Z,17.01
2023-10-30T18:59:45.328Z,17.00
2023-10-30T19:02:33.645Z,16.81
2023-10-30T19:05:23.378Z,16.65
2023-10-30T19:08:12.098Z,16.61
2023-10-30T19:11:00.698Z,16.30
2023-10-30T19:13:49.415Z,16.29
2023-10-30T19:16:37.893Z,16.56
2023-10-30T19:19:26.594Z,16.41
2023-10-30T19:22:18.522Z,15.99
2023-10-30T19:25:07.640Z,16.07
2023-10-30T19:27:55.965Z,16.03
2023-10-30T19:30:44.432Z,16.10
2023-10-30T19:33:33.086Z,15.95
2023-10-30T19:36:21.704Z,16.09
2023-10-30T19:39:12.640Z,16.05
2023-10-30T19:42:01.137Z,15.99
2023-10-30T19:44:49.709Z,16.07
2023-10-30T19:47:38.389Z,15.94
2023-10-30T19:50:26.913Z,15.92
2023-10-30T19:53:15.865Z,15.91
2023-10-30T19:56:06.134Z,15.93
2023-10-30T19:58:57.600Z,16.24
2023-10-30T20:01:46.606Z,16.26
2023-10-30T20:04:36.347Z,16.12
2023-10-30T20:07:25.067Z,15.75
2023-10-30T20:10:28.348Z,15.63
2023-10-30T20:13:25.298Z,15.62
2023-10-30T20:16:13.861Z,15.59
2023-10-30T20:19:02.302Z,15.38
2023-10-30T20:21:50.656Z,15.75
2023-10-30T20:24:40.872Z,15.75
2023-10-30T20:27:29.887Z,15.50
2023-10-30T20:30:22.980Z,15.60
2023-10-30T20:33:11.140Z,15.44
2023-10-30T20:36:00.597Z,15.18
2023-10-30T20:38:48.641Z,15.19
2023-10-30T20:41:36.806Z,15.22
2023-10-30T20:44:24.840Z,15.28
2023-10-30T20:47:17.743Z,15.35
2023-10-30T20:50:07.000Z,15.22
2023-10-30T20:52:55.385Z,15.19
2023-10-30T20:55:43.857Z,15.14
2023-10-30T20:58:32.523Z,14.97
2023-10-30T21:01:21.352Z,15.10
2023-10-30T21:04:10.939Z,15.18
2023-10-30T21:06:59.006Z,15.23
2023-10-30T21:09:46.783Z,15.41
2023-10-30T21:12:35.766Z,15.31
2023-10-30T21:15:24.974Z,15.09
2023-10-30T21:18:13.484Z,14.99
2023-10-30T21:21:03.811Z,14.94
2023-10-30T21:23:51.758Z,15.07
2023-10-30T21:26:39.641Z,15.12
2023-10-30T21:29:27.832Z,14.76
2023-10-30T21:32:15.711Z,14.80
2023-10-30T21:35:04.132Z,15.01
2023-10-30T21:37:53.458Z,14.87
2023-10-30T21:40:41.357Z,14.83
2023-10-30T21:43:29.360Z,14.95
2023-10-30T21:46:18.610Z,14.95
2023-10-30T21:49:06.767Z,14.77
2023-10-30T21:51:54.542Z,14.82
2023-10-30T21:54:45.308Z,14.71
2023-10-30T21:57:33.229Z,14.49
2023-10-30T22:00:21.514Z,14.39
2023-10-30T22:03:09.627Z,14.15
2023-10-30T22:05:57.628Z,14.35
2023-10-30T22:08:45.730Z,14.19
2023-10-30T22:11:35.713Z,14.08
2023-10-30T22:14:25.007Z,14.19
2023-10-30T22:17:13.306Z,14.34
2023-10-30T22:20:01.372Z,14.22
2023-10-30T22:22:49.311Z,14.26
2023-10-30T22:25:37.323Z,14.10
2023-10-30T22:28:26.803Z,14.00
2023-10-30T22:31:14.753Z,14.07
2023-10-30T22:34:02.599Z,14.13
2023-10-30T22:36:50.497Z,13.99
2023-10-30T22:39:38.420Z,14.10
2023-10-30T22:42:26.196Z,14.05
2023-10-30T22:45:15.520Z,13.92
2023-10-30T22:48:03.624Z,14.07
2023-10-30T22:50:51.704Z,13.93
2023-10-30T22:53:39.731Z,13.97
2023-10-30T22:56:27.592Z,14.10
2023-10-30T22:59:15.415Z,14.04
2023-10-30T23:02:04.720Z,13.77
2023-10-30T23:04:52.687Z,13.89
2023-10-30T23:07:40.933Z,13.91
2023-10-30T23:10:28.965Z,13.61
2023-10-30T23:13:16.927Z,14.19
2023-10-30T23:16:05.318Z,14.05
2023-10-30T23:18:54.728Z,13.98
2023-10-30T23:21:42.629Z,13.96
2023-10-30T23:24:30.517Z,13.88
2023-10-30T23:27:18.560Z,13.70
2023-10-30T23:30:07.480Z,13.86
2023-10-30T23:32:55.609Z,13.86
2023-10-30T23:35:44.910Z,13.95
2023-10-30T23:38:33.695Z,14.13
2023-10-30T23:41:21.487Z,13.99
2023-10-30T23:44:09.424Z,13.96
2023-10-30T23:46:57.601Z,13.94
2023-10-30T23:49:46.089Z,13.65
2023-10-30T23:52:35.524Z,13.58
2023-10-30T23:55:23.397Z,13.62
2023-10-30T23:58:11.259Z,13.63
